Terminal Aerodrome Forecast
Issued by NWS

Home | Current Version | Previous Version | Text Only | Print | Product List | Glossary On
Versions: 1 2 3 4 5 6 7 8 9 10 11 12 13 14 15 16 17 18 19 20 21 22 23
000
FTUS46 KMTR 250902 AAA
TAFSFO
TAF AMD
KSFO 250902Z 2509/2612 00000KT P6SM FEW013
     FM251500 VRB05KT P6SM FEW015
     FM252100 25015KT P6SM FEW250
     FM260300 28007KT P6SM SCT250=

USA.gov is the U.S. government's official web portal to all federal, state and local government web resources and services.